sensor_id;sensor_type;location;lat;lon;timestamp;temperature;humidity
41262;DHT22;29629;52.532;13.352;2022-11-15T00:01:15;7.00;99.90
41262;DHT22;29629;52.532;13.352;2022-11-15T00:03:43;7.00;99.90
41262;DHT22;29629;52.532;13.352;2022-11-15T00:06:12;7.00;99.90
41262;DHT22;29629;52.532;13.352;2022-11-15T00:08:39;7.00;99.90
41262;DHT22;29629;52.532;13.352;2022-11-15T00:11:06;7.00;99.90
41262;DHT22;29629;52.532;13.352;2022-11-15T00:13:32;7.00;99.90
41262;DHT22;29629;52.532;13.352;2022-11-15T00:16:00;7.00;99.90
41262;DHT22;29629;52.532;13.352;2022-11-15T00:18:28;7.00;99.90
41262;DHT22;29629;52.532;13.352;2022-11-15T00:20:55;6.90;99.90
41262;DHT22;29629;52.532;13.352;2022-11-15T00:23:24;6.90;99.90
41262;DHT22;29629;52.532;13.352;2022-11-15T00:25:55;6.90;99.90
41262;DHT22;29629;52.532;13.352;2022-11-15T00:28:26;7.00;99.90
41262;DHT22;29629;52.532;13.352;2022-11-15T00:30:53;7.00;99.90
41262;DHT22;29629;52.532;13.352;2022-11-15T00:33:20;6.90;99.90
41262;DHT22;29629;52.532;13.352;2022-11-15T00:35:47;6.90;99.90
41262;DHT22;29629;52.532;13.352;2022-11-15T00:38:14;6.90;99.90
41262;DHT22;29629;52.532;13.352;2022-11-15T00:40:42;6.90;99.90
41262;DHT22;29629;52.532;13.352;2022-11-15T00:43:09;6.90;99.90
41262;DHT22;29629;52.532;13.352;2022-11-15T00:45:36;6.90;99.90
41262;DHT22;29629;52.532;13.352;2022-11-15T00:48:04;6.90;99.90
41262;DHT22;29629;52.532;13.352;2022-11-15T00:50:30;6.80;99.90
41262;DHT22;29629;52.532;13.352;2022-11-15T00:52:57;6.80;99.90
41262;DHT22;29629;52.532;13.352;2022-11-15T00:55:24;6.80;99.90
41262;DHT22;29629;52.532;13.352;2022-11-15T00:57:52;6.90;99.90
41262;DHT22;29629;52.532;13.352;2022-11-15T01:00:19;6.80;99.90
41262;DHT22;29629;52.532;13.352;2022-11-15T01:02:46;6.80;99.90
41262;DHT22;29629;52.532;13.352;2022-11-15T01:05:13;6.80;99.90
41262;DHT22;29629;52.532;13.352;2022-11-15T01:07:40;6.80;99.90
41262;DHT22;29629;52.532;13.352;2022-11-15T01:10:08;6.80;99.90
41262;DHT22;29629;52.532;13.352;2022-11-15T01:12:35;6.80;99.90
41262;DHT22;29629;52.532;13.352;2022-11-15T01:15:04;6.70;99.90
41262;DHT22;29629;52.532;13.352;2022-11-15T01:17:31;6.70;99.90
41262;DHT22;29629;52.532;13.352;2022-11-15T01:19:58;6.70;99.90
41262;DHT22;29629;52.532;13.352;2022-11-15T01:22:25;6.80;99.90
41262;DHT22;29629;52.532;13.352;2022-11-15T01:24:52;6.70;99.90
41262;DHT22;29629;52.532;13.352;2022-11-15T01:27:19;6.70;99.90
41262;DHT22;29629;52.532;13.352;2022-11-15T01:29:46;6.70;99.90
41262;DHT22;29629;52.532;13.352;2022-11-15T01:32:14;6.70;99.90
41262;DHT22;29629;52.532;13.352;2022-11-15T01:34:41;6.60;99.90
41262;DHT22;29629;52.532;13.352;2022-11-15T01:37:08;6.60;99.90
41262;DHT22;29629;52.532;13.352;2022-11-15T01:39:35;6.70;99.90
41262;DHT22;29629;52.532;13.352;2022-11-15T01:42:01;6.70;99.90
41262;DHT22;29629;52.532;13.352;2022-11-15T01:44:39;6.60;99.90
41262;DHT22;29629;52.532;13.352;2022-11-15T01:47:09;6.70;99.90
41262;DHT22;29629;52.532;13.352;2022-11-15T01:49:50;6.60;99.90
41262;DHT22;29629;52.532;13.352;2022-11-15T01:52:20;6.60;99.90
41262;DHT22;29629;52.532;13.352;2022-11-15T01:54:51;6.60;99.90
41262;DHT22;29629;52.532;13.352;2022-11-15T01:57:19;6.60;99.90
41262;DHT22;29629;52.532;13.352;2022-11-15T01:59:47;6.60;99.90
41262;DHT22;29629;52.532;13.352;2022-11-15T02:02:14;6.60;99.90
41262;DHT22;29629;52.532;13.352;2022-11-15T02:04:44;6.60;99.90
41262;DHT22;29629;52.532;13.352;2022-11-15T02:07:14;6.60;99.90
41262;DHT22;29629;52.532;13.352;2022-11-15T02:09:42;6.60;99.90
41262;DHT22;29629;52.532;13.352;2022-11-15T02:12:10;6.60;99.90
41262;DHT22;29629;52.532;13.352;2022-11-15T02:14:41;6.60;99.90
41262;DHT22;29629;52.532;13.352;2022-11-15T02:17:25;6.60;99.90
41262;DHT22;29629;52.532;13.352;2022-11-15T02:20:17;6.60;99.90
41262;DHT22;29629;52.532;13.352;2022-11-15T02:23:04;6.60;99.90
41262;DHT22;29629;52.532;13.352;2022-11-15T02:25:39;6.50;99.90
41262;DHT22;29629;52.532;13.352;2022-11-15T02:31:03;6.50;99.90
41262;DHT22;29629;52.532;13.352;2022-11-15T02:33:36;6.50;99.90
41262;DHT22;29629;52.532;13.352;2022-11-15T02:36:11;6.60;99.90
41262;DHT22;29629;52.532;13.352;2022-11-15T02:38:44;6.50;99.90
41262;DHT22;29629;52.532;13.352;2022-11-15T02:41:16;6.50;99.90
41262;DHT22;29629;52.532;13.352;2022-11-15T02:43:49;6.50;99.90
41262;DHT22;29629;52.532;13.352;2022-11-15T02:46:24;6.50;99.90
41262;DHT22;29629;52.532;13.352;2022-11-15T02:49:13;6.50;99.90
41262;DHT22;29629;52.532;13.352;2022-11-15T02:51:43;6.50;99.90
41262;DHT22;29629;52.532;13.352;2022-11-15T02:54:13;6.50;99.90
41262;DHT22;29629;52.532;13.352;2022-11-15T02:56:40;6.50;99.90
41262;DHT22;29629;52.532;13.352;2022-11-15T02:59:18;6.50;99.90
41262;DHT22;29629;52.532;13.352;2022-11-15T03:02:00;6.50;99.90
41262;DHT22;29629;52.532;13.352;2022-11-15T03:04:36;6.50;99.90
41262;DHT22;29629;52.532;13.352;2022-11-15T03:07:09;6.50;99.90
41262;DHT22;29629;52.532;13.352;2022-11-15T03:09:44;6.50;99.90
41262;DHT22;29629;52.532;13.352;2022-11-15T03:12:16;6.50;99.90
41262;DHT22;29629;52.532;13.352;2022-11-15T03:14:53;6.40;99.90
41262;DHT22;29629;52.532;13.352;2022-11-15T03:17:25;6.50;99.90
41262;DHT22;29629;52.532;13.352;2022-11-15T03:19:56;6.50;99.90
41262;DHT22;29629;52.532;13.352;2022-11-15T03:22:27;6.40;99.90
41262;DHT22;29629;52.532;13.352;2022-11-15T03:24:57;6.50;99.90
41262;DHT22;29629;52.532;13.352;2022-11-15T03:27:30;6.50;99.90
41262;DHT22;29629;52.532;13.352;2022-11-15T03:29:59;6.50;99.90
41262;DHT22;29629;52.532;13.352;2022-11-15T03:32:30;6.50;99.90
41262;DHT22;29629;52.532;13.352;2022-11-15T03:35:02;6.60;99.90
41262;DHT22;29629;52.532;13.352;2022-11-15T03:37:33;6.50;99.90
41262;DHT22;29629;52.532;13.352;2022-11-15T03:40:02;6.50;99.90
41262;DHT22;29629;52.532;13.352;2022-11-15T03:42:32;6.60;99.90
41262;DHT22;29629;52.532;13.352;2022-11-15T03:45:05;6.50;99.90
41262;DHT22;29629;52.532;13.352;2022-11-15T03:47:39;6.50;99.90
41262;DHT22;29629;52.532;13.352;2022-11-15T03:50:11;6.50;99.90
41262;DHT22;29629;52.532;13.352;2022-11-15T03:52:40;6.50;99.90
41262;DHT22;29629;52.532;13.352;2022-11-15T03:55:10;6.50;99.90
41262;DHT22;29629;52.532;13.352;2022-11-15T03:57:38;6.50;99.90
41262;DHT22;29629;52.532;13.352;2022-11-15T04:00:06;6.50;99.90
41262;DHT22;29629;52.532;13.352;2022-11-15T04:02:33;6.50;99.90
41262;DHT22;29629;52.532;13.352;2022-11-15T04:05:01;6.60;99.90
41262;DHT22;29629;52.532;13.352;2022-11-15T04:07:28;6.60;99.90
41262;DHT22;29629;52.532;13.352;2022-11-15T04:09:55;6.60;99.90
41262;DHT22;29629;52.532;13.352;2022-11-15T04:12:32;6.60;99.90
41262;DHT22;29629;52.532;13.352;2022-11-15T04:15:01;6.60;99.90
41262;DHT22;29629;52.532;13.352;2022-11-15T04:17:35;6.60;99.90
41262;DHT22;29629;52.532;13.352;2022-11-15T04:20:04;6.60;99.90
41262;DHT22;29629;52.532;13.352;2022-11-15T04:22:52;6.60;99.90
41262;DHT22;29629;52.532;13.352;2022-11-15T04:25:36;6.60;99.90
41262;DHT22;29629;52.532;13.352;2022-11-15T04:28:03;6.60;99.90
41262;DHT22;29629;52.532;13.352;2022-11-15T04:30:30;6.60;99.90
41262;DHT22;29629;52.532;13.352;2022-11-15T04:32:57;6.70;99.90
41262;DHT22;29629;52.532;13.352;2022-11-15T04:35:26;6.60;99.90
41262;DHT22;29629;52.532;13.352;2022-11-15T04:37:52;6.60;99.90
41262;DHT22;29629;52.532;13.352;2022-11-15T04:40:18;6.60;99.90
41262;DHT22;29629;52.532;13.352;2022-11-15T04:42:45;6.70;99.90
41262;DHT22;29629;52.532;13.352;2022-11-15T04:45:12;6.60;99.90
41262;DHT22;29629;52.532;13.352;2022-11-15T04:47:39;6.70;99.90
41262;DHT22;29629;52.532;13.352;2022-11-15T04:50:07;6.60;99.90
41262;DHT22;29629;52.532;13.352;2022-11-15T04:52:35;6.60;99.90
41262;DHT22;29629;52.532;13.352;2022-11-15T04:55:03;6.60;99.90
41262;DHT22;29629;52.532;13.352;2022-11-15T04:57:30;6.60;99.90
41262;DHT22;29629;52.532;13.352;2022-11-15T04:59:57;6.60;99.90
41262;DHT22;29629;52.532;13.352;2022-11-15T05:02:23;6.60;99.90
41262;DHT22;29629;52.532;13.352;2022-11-15T05:05:10;6.60;99.90
41262;DHT22;29629;52.532;13.352;2022-11-15T05:07:37;6.60;99.90
41262;DHT22;29629;52.532;13.352;2022-11-15T05:10:05;6.60;99.90
41262;DHT22;29629;52.532;13.352;2022-11-15T05:12:32;6.60;99.90
41262;DHT22;29629;52.532;13.352;2022-11-15T05:14:59;6.60;99.90
41262;DHT22;29629;52.532;13.352;2022-11-15T05:17:25;6.60;99.90
41262;DHT22;29629;52.532;13.352;2022-11-15T05:19:52;6.60;99.90
41262;DHT22;29629;52.532;13.352;2022-11-15T05:22:20;6.50;99.90
41262;DHT22;29629;52.532;13.352;2022-11-15T05:24:48;6.60;99.90
41262;DHT22;29629;52.532;13.352;2022-11-15T05:27:15;6.60;99.90
41262;DHT22;29629;52.532;13.352;2022-11-15T05:29:42;6.50;99.90
41262;DHT22;29629;52.532;13.352;2022-11-15T05:32:09;6.50;99.90
41262;DHT22;29629;52.532;13.352;2022-11-15T05:34:37;6.50;99.90
41262;DHT22;29629;52.532;13.352;2022-11-15T05:37:04;6.50;99.90
41262;DHT22;29629;52.532;13.352;2022-11-15T05:39:32;6.50;99.90
41262;DHT22;29629;52.532;13.352;2022-11-15T05:42:04;6.50;99.90
41262;DHT22;29629;52.532;13.352;2022-11-15T05:44:33;6.40;99.90
41262;DHT22;29629;52.532;13.352;2022-11-15T05:47:01;6.40;99.90
41262;DHT22;29629;52.532;13.352;2022-11-15T05:49:31;6.50;99.90
41262;DHT22;29629;52.532;13.352;2022-11-15T05:52:00;6.50;99.90
41262;DHT22;29629;52.532;13.352;2022-11-15T05:54:28;6.50;99.90
41262;DHT22;29629;52.532;13.352;2022-11-15T05:56:56;6.50;99.90
41262;DHT22;29629;52.532;13.352;2022-11-15T05:59:25;6.40;99.90
41262;DHT22;29629;52.532;13.352;2022-11-15T06:01:52;6.50;99.90
41262;DHT22;29629;52.532;13.352;2022-11-15T06:04:19;6.50;99.90
41262;DHT22;29629;52.532;13.352;2022-11-15T06:06:45;6.50;99.90
41262;DHT22;29629;52.532;13.352;2022-11-15T06:09:12;6.50;99.90
41262;DHT22;29629;52.532;13.352;2022-11-15T06:11:39;6.50;99.90
41262;DHT22;29629;52.532;13.352;2022-11-15T06:14:06;6.50;99.90
41262;DHT22;29629;52.532;13.352;2022-11-15T06:16:34;6.50;99.90
41262;DHT22;29629;52.532;13.352;2022-11-15T06:19:01;6.50;99.90
41262;DHT22;29629;52.532;13.352;2022-11-15T06:21:28;6.50;99.90
41262;DHT22;29629;52.532;13.352;2022-11-15T06:23:55;6.50;99.90
41262;DHT22;29629;52.532;13.352;2022-11-15T06:26:22;6.50;99.90
41262;DHT22;29629;52.532;13.352;2022-11-15T06:28:49;6.50;99.90
41262;DHT22;29629;52.532;13.352;2022-11-15T06:31:16;6.50;99.90
41262;DHT22;29629;52.532;13.352;2022-11-15T06:33:44;6.50;99.90
41262;DHT22;29629;52.532;13.352;2022-11-15T06:36:13;6.50;99.90
41262;DHT22;29629;52.532;13.352;2022-11-15T06:38:42;6.50;99.90
41262;DHT22;29629;52.532;13.352;2022-11-15T06:41:10;6.50;99.90
41262;DHT22;29629;52.532;13.352;2022-11-15T06:43:37;6.50;99.90
41262;DHT22;29629;52.532;13.352;2022-11-15T06:46:05;6.50;99.90
41262;DHT22;29629;52.532;13.352;2022-11-15T06:48:33;6.60;99.90
41262;DHT22;29629;52.532;13.352;2022-11-15T06:51:04;6.50;99.90
41262;DHT22;29629;52.532;13.352;2022-11-15T06:53:31;6.60;99.90
41262;DHT22;29629;52.532;13.352;2022-11-15T06:55:59;6.60;99.90
41262;DHT22;29629;52.532;13.352;2022-11-15T06:58:26;6.70;99.90
41262;DHT22;29629;52.532;13.352;2022-11-15T07:00:57;6.60;99.90
41262;DHT22;29629;52.532;13.352;2022-11-15T07:03:24;6.60;99.90
41262;DHT22;29629;52.532;13.352;2022-11-15T07:05:52;6.70;99.90
41262;DHT22;29629;52.532;13.352;2022-11-15T07:08:21;6.70;99.90
41262;DHT22;29629;52.532;13.352;2022-11-15T07:10:48;6.70;99.90
41262;DHT22;29629;52.532;13.352;2022-11-15T07:13:15;6.70;99.90
41262;DHT22;29629;52.532;13.352;2022-11-15T07:15:42;6.70;99.90
41262;DHT22;29629;52.532;13.352;2022-11-15T07:18:09;6.70;99.90
41262;DHT22;29629;52.532;13.352;2022-11-15T07:20:36;6.70;99.90
41262;DHT22;29629;52.532;13.352;2022-11-15T07:23:04;6.80;99.90
41262;DHT22;29629;52.532;13.352;2022-11-15T07:25:33;6.80;99.90
41262;DHT22;29629;52.532;13.352;2022-11-15T07:28:00;6.80;99.90
41262;DHT22;29629;52.532;13.352;2022-11-15T07:30:27;6.90;99.90
41262;DHT22;29629;52.532;13.352;2022-11-15T07:32:55;6.90;99.90
41262;DHT22;29629;52.532;13.352;2022-11-15T07:35:23;7.00;99.90
41262;DHT22;29629;52.532;13.352;2022-11-15T07:37:54;7.00;99.90
41262;DHT22;29629;52.532;13.352;2022-11-15T07:40:22;7.10;99.90
41262;DHT22;29629;52.532;13.352;2022-11-15T07:42:50;7.30;99.90
41262;DHT22;29629;52.532;13.352;2022-11-15T07:45:21;7.30;99.90
41262;DHT22;29629;52.532;13.352;2022-11-15T07:47:51;7.40;99.90
41262;DHT22;29629;52.532;13.352;2022-11-15T07:50:18;7.40;99.90
41262;DHT22;29629;52.532;13.352;2022-11-15T07:52:46;7.50;99.90
41262;DHT22;29629;52.532;13.352;2022-11-15T07:55:13;7.50;99.90
41262;DHT22;29629;52.532;13.352;2022-11-15T07:57:40;7.60;99.90
41262;DHT22;29629;52.532;13.352;2022-11-15T08:00:09;7.70;99.90
41262;DHT22;29629;52.532;13.352;2022-11-15T08:02:36;7.80;99.90
41262;DHT22;29629;52.532;13.352;2022-11-15T08:05:04;7.90;99.90
41262;DHT22;29629;52.532;13.352;2022-11-15T08:07:31;8.00;99.90
41262;DHT22;29629;52.532;13.352;2022-11-15T08:09:58;8.10;99.90
41262;DHT22;29629;52.532;13.352;2022-11-15T08:12:26;8.20;99.90
41262;DHT22;29629;52.532;13.352;2022-11-15T08:14:54;8.30;99.90
41262;DHT22;29629;52.532;13.352;2022-11-15T08:17:23;8.40;99.90
41262;DHT22;29629;52.532;13.352;2022-11-15T08:19:51;8.60;99.90
41262;DHT22;29629;52.532;13.352;2022-11-15T08:22:18;8.80;99.90
41262;DHT22;29629;52.532;13.352;2022-11-15T08:24:46;8.90;99.90
41262;DHT22;29629;52.532;13.352;2022-11-15T08:27:13;9.10;99.90
41262;DHT22;29629;52.532;13.352;2022-11-15T08:29:42;9.10;99.90
41262;DHT22;29629;52.532;13.352;2022-11-15T08:32:09;9.30;99.90
41262;DHT22;29629;52.532;13.352;2022-11-15T08:34:38;9.50;99.90
41262;DHT22;29629;52.532;13.352;2022-11-15T08:37:05;9.70;99.90
41262;DHT22;29629;52.532;13.352;2022-11-15T08:39:32;10.30;99.90
41262;DHT22;29629;52.532;13.352;2022-11-15T08:41:59;10.40;99.90
41262;DHT22;29629;52.532;13.352;2022-11-15T08:44:26;10.40;99.90
41262;DHT22;29629;52.532;13.352;2022-11-15T08:46:53;10.30;99.90
41262;DHT22;29629;52.532;13.352;2022-11-15T08:49:20;10.40;99.90
41262;DHT22;29629;52.532;13.352;2022-11-15T08:51:48;10.50;99.90
41262;DHT22;29629;52.532;13.352;2022-11-15T08:54:15;10.40;99.90
41262;DHT22;29629;52.532;13.352;2022-11-15T08:56:42;10.40;99.90
41262;DHT22;29629;52.532;13.352;2022-11-15T08:59:09;10.60;99.90
41262;DHT22;29629;52.532;13.352;2022-11-15T09:01:36;10.40;99.90
41262;DHT22;29629;52.532;13.352;2022-11-15T09:04:03;10.60;99.90
41262;DHT22;29629;52.532;13.352;2022-11-15T09:06:30;10.70;99.90
41262;DHT22;29629;52.532;13.352;2022-11-15T09:09:00;10.90;99.90
41262;DHT22;29629;52.532;13.352;2022-11-15T09:11:27;11.20;99.90
41262;DHT22;29629;52.532;13.352;2022-11-15T09:13:54;11.40;99.90
41262;DHT22;29629;52.532;13.352;2022-11-15T09:16:21;11.50;99.90
41262;DHT22;29629;52.532;13.352;2022-11-15T09:18:48;11.60;99.90
41262;DHT22;29629;52.532;13.352;2022-11-15T09:21:15;11.40;99.90
41262;DHT22;29629;52.532;13.352;2022-11-15T09:23:42;11.40;99.90
41262;DHT22;29629;52.532;13.352;2022-11-15T09:26:10;11.20;99.90
41262;DHT22;29629;52.532;13.352;2022-11-15T09:28:37;11.00;99.90
41262;DHT22;29629;52.532;13.352;2022-11-15T09:31:07;10.80;99.90
41262;DHT22;29629;52.532;13.352;2022-11-15T09:33:35;10.70;99.90
41262;DHT22;29629;52.532;13.352;2022-11-15T09:36:03;10.60;99.90
41262;DHT22;29629;52.532;13.352;2022-11-15T09:38:30;10.50;99.90
41262;DHT22;29629;52.532;13.352;2022-11-15T09:41:16;10.50;99.90
41262;DHT22;29629;52.532;13.352;2022-11-15T09:43:53;10.40;99.90
41262;DHT22;29629;52.532;13.352;2022-11-15T09:46:30;10.40;99.90
41262;DHT22;29629;52.532;13.352;2022-11-15T09:49:01;10.50;99.90
41262;DHT22;29629;52.532;13.352;2022-11-15T09:51:30;10.50;99.90
41262;DHT22;29629;52.532;13.352;2022-11-15T09:54:05;10.50;99.90
41262;DHT22;29629;52.532;13.352;2022-11-15T09:56:39;10.50;99.90
41262;DHT22;29629;52.532;13.352;2022-11-15T09:59:43;10.60;99.90
41262;DHT22;29629;52.532;13.352;2022-11-15T10:02:23;10.60;99.90
41262;DHT22;29629;52.532;13.352;2022-11-15T10:04:54;10.60;99.90
41262;DHT22;29629;52.532;13.352;2022-11-15T10:07:25;10.70;99.90
41262;DHT22;29629;52.532;13.352;2022-11-15T10:09:56;10.70;99.90
41262;DHT22;29629;52.532;13.352;2022-11-15T10:12:27;10.70;99.90
41262;DHT22;29629;52.532;13.352;2022-11-15T10:15:00;10.70;99.90
41262;DHT22;29629;52.532;13.352;2022-11-15T10:20:21;10.80;99.90
41262;DHT22;29629;52.532;13.352;2022-11-15T10:22:51;10.90;99.90
41262;DHT22;29629;52.532;13.352;2022-11-15T10:25:22;10.90;99.90
41262;DHT22;29629;52.532;13.352;2022-11-15T10:27:56;10.90;99.90
41262;DHT22;29629;52.532;13.352;2022-11-15T10:30:32;10.90;99.90
41262;DHT22;29629;52.532;13.352;2022-11-15T10:33:20;11.00;99.90
41262;DHT22;29629;52.532;13.352;2022-11-15T10:36:17;11.10;99.90
41262;DHT22;29629;52.532;13.352;2022-11-15T10:38:56;11.10;99.90
41262;DHT22;29629;52.532;13.352;2022-11-15T10:41:37;11.20;99.90
41262;DHT22;29629;52.532;13.352;2022-11-15T10:44:22;11.20;99.90
41262;DHT22;29629;52.532;13.352;2022-11-15T10:47:06;11.30;99.90
41262;DHT22;29629;52.532;13.352;2022-11-15T10:49:34;11.30;99.90
41262;DHT22;29629;52.532;13.352;2022-11-15T10:52:12;11.30;99.90
41262;DHT22;29629;52.532;13.352;2022-11-15T10:54:42;11.30;99.90
41262;DHT22;29629;52.532;13.352;2022-11-15T10:57:13;11.40;99.90
41262;DHT22;29629;52.532;13.352;2022-11-15T10:59:46;11.40;99.90
41262;DHT22;29629;52.532;13.352;2022-11-15T11:02:28;11.50;99.90
41262;DHT22;29629;52.532;13.352;2022-11-15T11:04:56;11.60;99.90
41262;DHT22;29629;52.532;13.352;2022-11-15T11:07:25;11.60;99.90
41262;DHT22;29629;52.532;13.352;2022-11-15T11:10:01;11.50;99.90
41262;DHT22;29629;52.532;13.352;2022-11-15T11:12:30;11.60;99.90
41262;DHT22;29629;52.532;13.352;2022-11-15T11:15:00;11.70;99.90
41262;DHT22;29629;52.532;13.352;2022-11-15T11:17:36;11.70;99.90
41262;DHT22;29629;52.532;13.352;2022-11-15T11:20:12;11.70;99.90
41262;DHT22;29629;52.532;13.352;2022-11-15T11:22:55;11.90;99.90
41262;DHT22;29629;52.532;13.352;2022-11-15T11:25:30;11.90;99.90
41262;DHT22;29629;52.532;13.352;2022-11-15T11:28:11;11.90;99.90
41262;DHT22;29629;52.532;13.352;2022-11-15T11:30:51;11.90;99.90
41262;DHT22;29629;52.532;13.352;2022-11-15T11:33:22;11.90;99.90
41262;DHT22;29629;52.532;13.352;2022-11-15T11:36:03;11.90;99.90
41262;DHT22;29629;52.532;13.352;2022-11-15T11:38:45;12.10;99.90
41262;DHT22;29629;52.532;13.352;2022-11-15T11:41:36;12.10;99.90
41262;DHT22;29629;52.532;13.352;2022-11-15T11:44:18;12.10;99.90
41262;DHT22;29629;52.532;13.352;2022-11-15T11:46:55;12.10;99.90
41262;DHT22;29629;52.532;13.352;2022-11-15T11:49:26;12.20;99.90
41262;DHT22;29629;52.532;13.352;2022-11-15T11:51:58;12.20;99.90
41262;DHT22;29629;52.532;13.352;2022-11-15T11:54:34;12.20;99.90
41262;DHT22;29629;52.532;13.352;2022-11-15T11:57:07;12.20;99.90
41262;DHT22;29629;52.532;13.352;2022-11-15T11:59:41;12.30;99.90
41262;DHT22;29629;52.532;13.352;2022-11-15T12:02:18;12.30;99.90
41262;DHT22;29629;52.532;13.352;2022-11-15T12:04:50;12.30;99.90
41262;DHT22;29629;52.532;13.352;2022-11-15T12:07:23;12.40;99.90
41262;DHT22;29629;52.532;13.352;2022-11-15T12:09:55;12.30;99.90
41262;DHT22;29629;52.532;13.352;2022-11-15T12:12:30;12.50;99.90
41262;DHT22;29629;52.532;13.352;2022-11-15T12:15:02;12.50;99.90
41262;DHT22;29629;52.532;13.352;2022-11-15T12:17:31;12.60;99.90
41262;DHT22;29629;52.532;13.352;2022-11-15T12:19:59;12.50;99.90
41262;DHT22;29629;52.532;13.352;2022-11-15T12:22:35;12.50;99.90
41262;DHT22;29629;52.532;13.352;2022-11-15T12:25:07;12.60;99.90
41262;DHT22;29629;52.532;13.352;2022-11-15T12:27:42;12.60;99.90
41262;DHT22;29629;52.532;13.352;2022-11-15T12:30:14;12.70;99.90
41262;DHT22;29629;52.532;13.352;2022-11-15T12:32:51;12.70;99.90
41262;DHT22;29629;52.532;13.352;2022-11-15T12:35:31;12.70;99.90
41262;DHT22;29629;52.532;13.352;2022-11-15T12:37:59;12.80;99.90
41262;DHT22;29629;52.532;13.352;2022-11-15T12:40:32;12.80;99.90
41262;DHT22;29629;52.532;13.352;2022-11-15T12:45:52;13.00;99.90
41262;DHT22;29629;52.532;13.352;2022-11-15T12:54:51;13.30;99.90
41262;DHT22;29629;52.532;13.352;2022-11-15T12:57:30;13.30;99.90
41262;DHT22;29629;52.532;13.352;2022-11-15T12:59:59;13.40;99.90
41262;DHT22;29629;52.532;13.352;2022-11-15T13:02:30;13.50;99.90
41262;DHT22;29629;52.532;13.352;2022-11-15T13:08:08;13.50;99.90
41262;DHT22;29629;52.532;13.352;2022-11-15T13:10:35;13.50;99.90
41262;DHT22;29629;52.532;13.352;2022-11-15T13:13:03;13.40;99.90
41262;DHT22;29629;52.532;13.352;2022-11-15T13:15:40;13.40;99.90
41262;DHT22;29629;52.532;13.352;2022-11-15T13:18:42;13.40;99.90
41262;DHT22;29629;52.532;13.352;2022-11-15T13:21:20;13.30;99.90
41262;DHT22;29629;52.532;13.352;2022-11-15T13:24:12;13.30;99.90
41262;DHT22;29629;52.532;13.352;2022-11-15T13:26:39;13.30;99.90
41262;DHT22;29629;52.532;13.352;2022-11-15T13:29:14;13.30;99.90
41262;DHT22;29629;52.532;13.352;2022-11-15T13:31:43;13.20;99.90
41262;DHT22;29629;52.532;13.352;2022-11-15T13:34:24;13.20;99.90
41262;DHT22;29629;52.532;13.352;2022-11-15T13:36:52;13.20;99.90
41262;DHT22;29629;52.532;13.352;2022-11-15T13:39:31;13.20;99.90
41262;DHT22;29629;52.532;13.352;2022-11-15T13:41:59;13.10;99.90
41262;DHT22;29629;52.532;13.352;2022-11-15T13:44:28;13.10;99.90
41262;DHT22;29629;52.532;13.352;2022-11-15T13:47:03;13.00;99.90
41262;DHT22;29629;52.532;13.352;2022-11-15T13:49:31;13.00;99.90
41262;DHT22;29629;52.532;13.352;2022-11-15T13:52:00;13.00;99.90
41262;DHT22;29629;52.532;13.352;2022-11-15T13:54:32;13.00;99.90
41262;DHT22;29629;52.532;13.352;2022-11-15T13:57:02;12.90;99.90
41262;DHT22;29629;52.532;13.352;2022-11-15T13:59:31;13.00;99.90
41262;DHT22;29629;52.532;13.352;2022-11-15T14:02:03;13.00;99.90
41262;DHT22;29629;52.532;13.352;2022-11-15T14:04:39;13.00;99.90
41262;DHT22;29629;52.532;13.352;2022-11-15T14:07:16;13.00;99.90
41262;DHT22;29629;52.532;13.352;2022-11-15T14:09:45;12.90;99.90
41262;DHT22;29629;52.532;13.352;2022-11-15T14:12:24;12.90;99.90
41262;DHT22;29629;52.532;13.352;2022-11-15T14:14:52;12.80;99.90
41262;DHT22;29629;52.532;13.352;2022-11-15T14:17:21;12.70;99.90
41262;DHT22;29629;52.532;13.352;2022-11-15T14:19:49;12.70;99.90
41262;DHT22;29629;52.532;13.352;2022-11-15T14:22:21;12.70;99.90
41262;DHT22;29629;52.532;13.352;2022-11-15T14:25:13;12.70;99.90
41262;DHT22;29629;52.532;13.352;2022-11-15T14:27:41;12.60;99.90
41262;DHT22;29629;52.532;13.352;2022-11-15T14:30:17;12.60;99.90
41262;DHT22;29629;52.532;13.352;2022-11-15T14:32:46;12.60;99.90
41262;DHT22;29629;52.532;13.352;2022-11-15T14:35:15;12.60;99.90
41262;DHT22;29629;52.532;13.352;2022-11-15T14:37:42;12.60;99.90
41262;DHT22;29629;52.532;13.352;2022-11-15T14:40:14;12.50;99.90
41262;DHT22;29629;52.532;13.352;2022-11-15T14:42:42;12.50;99.90
41262;DHT22;29629;52.532;13.352;2022-11-15T14:45:13;12.50;99.90
41262;DHT22;29629;52.532;13.352;2022-11-15T14:47:41;12.50;99.90
41262;DHT22;29629;52.532;13.352;2022-11-15T14:50:12;12.50;99.90
41262;DHT22;29629;52.532;13.352;2022-11-15T14:52:39;12.40;99.90
41262;DHT22;29629;52.532;13.352;2022-11-15T14:55:15;12.40;99.90
41262;DHT22;29629;52.532;13.352;2022-11-15T14:57:43;12.40;99.90
41262;DHT22;29629;52.532;13.352;2022-11-15T15:00:12;12.30;99.90
41262;DHT22;29629;52.532;13.352;2022-11-15T15:02:39;12.30;99.90
41262;DHT22;29629;52.532;13.352;2022-11-15T15:05:15;12.30;99.90
41262;DHT22;29629;52.532;13.352;2022-11-15T15:07:42;12.30;99.90
41262;DHT22;29629;52.532;13.352;2022-11-15T15:10:10;12.20;99.90
41262;DHT22;29629;52.532;13.352;2022-11-15T15:12:38;12.20;99.90
41262;DHT22;29629;52.532;13.352;2022-11-15T15:15:09;12.10;99.90
41262;DHT22;29629;52.532;13.352;2022-11-15T15:17:39;12.00;99.90
41262;DHT22;29629;52.532;13.352;2022-11-15T15:20:07;12.00;99.90
41262;DHT22;29629;52.532;13.352;2022-11-15T15:22:34;11.90;99.90
41262;DHT22;29629;52.532;13.352;2022-11-15T15:25:18;11.90;99.90
41262;DHT22;29629;52.532;13.352;2022-11-15T15:27:48;11.90;99.90
41262;DHT22;29629;52.532;13.352;2022-11-15T15:30:15;11.80;99.90
41262;DHT22;29629;52.532;13.352;2022-11-15T15:32:43;11.80;99.90
41262;DHT22;29629;52.532;13.352;2022-11-15T15:35:12;11.80;99.90
41262;DHT22;29629;52.532;13.352;2022-11-15T15:37:39;11.80;99.90
41262;DHT22;29629;52.532;13.352;2022-11-15T15:40:12;11.80;99.90
41262;DHT22;29629;52.532;13.352;2022-11-15T15:42:39;11.70;99.90
41262;DHT22;29629;52.532;13.352;2022-11-15T15:45:09;11.70;99.90
41262;DHT22;29629;52.532;13.352;2022-11-15T15:47:36;11.60;99.90
41262;DHT22;29629;52.532;13.352;2022-11-15T15:50:04;11.60;99.90
41262;DHT22;29629;52.532;13.352;2022-11-15T15:52:38;11.60;99.90
41262;DHT22;29629;52.532;13.352;2022-11-15T15:55:05;11.60;99.90
41262;DHT22;29629;52.532;13.352;2022-11-15T15:57:32;11.60;99.90
41262;DHT22;29629;52.532;13.352;2022-11-15T15:59:59;11.60;99.90
41262;DHT22;29629;52.532;13.352;2022-11-15T16:02:27;11.50;99.90
41262;DHT22;29629;52.532;13.352;2022-11-15T16:04:54;11.50;99.90